MET'MAP v2.0
soon released !

Expected late october,
this new version will be
more efficient, smarter,
and hosted on a brand new
server x3 powerfull...
...and still free !


Not compatible ?
Try the mobile version !

LOG IN : | Subscribe | Disclaimer | Who is Orbifly ? |
ICAO code :

TAF - LJPZ Portoroz - 19 Feb 2020 06:26 UTC - Data Source NOAA   


- Airport Elevation : 7 ft
- IATA code : POW
- No reported NOTAMs.


LJPZ - Portoroz

Latest METAR recorded : 2015/08/11 08:00 LJPZ 110800Z VRB02KT CAVOK 28/18 Q1012
TAF TAF LJPZ
Valid from the 19 at 03:00 until the 19 at 12:00 UTC


190200Z 1903/1912 10003KT 7000 SCT060
BECMG 1910/1912 32005KT

Source NOAA


MET'MAP, your aeronautical weather chart ! - Copyright ORBIFLY December 2007

Programming & Development : Alexandra Zaïnal
Co-Developer : Marc-Olivier Méhu
Technical & hardware support : Manuel Goepfert
Concept & Financing : Baudouin d'Aumeries